Thunderstorms From: 25-05-2018 15:00 Until: 26-05-2018 15:00 warning for: Thunderstorms Level: Yellow info button

Although rather usual in this region, locally or potentially dangerous phenomena are expected. (such as local winds, summer thunderstorms, rising streams or high waves) Be aware and pay attention to the latest weather updates, especially if you carry out activities exposed to weather or close to a stream or shoreline. 


Meteo18 Weather Cam more information Meteo18 Weather Cam


warning for Thunderstorms more information blitzortung!


Rain radar more information rain snow radar


Visit our other weather sites:

Template documentation
and downloads

And another site



Weather Underground History page Text

Daily Summary for July 23, 2016 Units:  Metric    English   Both
« Previous Day
Next Day »
Daily Weekly Monthly Yearly Custom
  High: Low: Average:
Temperature: -17.8 °C -8.1 °C -5.2 °C
Dew Point: -17.8 °C -10.6 °C -9.6 °C
Humidity: Humidity % 41 % 63 %
Wind Speed: 0 km/h 0 km/h 2.4 km/h
Wind Gust: 0 km/h - -
Wind:- - East
Pressure: 0 hPa 34428.8 hPa -
Precipitation: 0 mm    
Historical Graphs
 
 
Tabular Data for July 23, 2016
Time Temperature Dew Point Pressure Wind Wind Speed Wind Gust Humidity Rainfall Rate (Hourly)
-17.8 °C -17.8 °C 0 hPa Calm     Humidity % 0 mm
00:02 -7 °C -8.4 °C 34428.8 hPa Calm     85 % 0 mm
00:12 -7.1 °C -8.5 °C 34428.8 hPa Calm     85 % 0 mm
00:17 -7.1 °C -8.4 °C 34442.4 hPa Calm     86 % 0 mm
00:22 -7.1 °C -8.4 °C 34442.4 hPa Calm     86 % 0 mm
00:27 -7.2 °C -8.5 °C 34442.4 hPa Calm     86 % 0 mm
00:32 -7.2 °C -8.5 °C 34442.4 hPa Calm     86 % 0 mm
00:42 -7.1 °C -8.4 °C 34442.4 hPa Calm     86 % 0 mm
00:47 -7.1 °C -8.3 °C 34442.4 hPa Calm     87 % 0 mm
00:52 -7.1 °C -8.3 °C 34442.4 hPa Calm     87 % 0 mm
01:02 -7.1 °C -8.3 °C 34442.4 hPa Calm     87 % 0 mm
01:07 -7.1 °C -8.3 °C 34442.4 hPa Calm     87 % 0 mm
01:12 -7.1 °C -8.7 °C 34442.4 hPa Calm     84 % 0 mm
01:17 -6.9 °C -8.8 °C 34442.4 hPa Calm     80 % 0 mm
01:22 -6.7 °C -9.1 °C 34442.4 hPa East 10.3 km/h   77 % 0 mm
01:32 -6.5 °C -9.3 °C 34442.4 hPa Calm   10.3 km/h 73 % 0 mm
01:42 -6.5 °C -9.7 °C 34442.4 hPa ENE 5.1 km/h 10.3 km/h 70 % 0 mm
01:52 -6.6 °C -9.7 °C 34442.4 hPa ENE 2.6 km/h 12.9 km/h 70 % 0 mm
01:57 -6.6 °C -9.7 °C 34442.4 hPa Calm   12.9 km/h 70 % 0 mm
02:02 -6.7 °C -9.8 °C 34442.4 hPa Calm   12.9 km/h 70 % 0 mm
02:12 -6.8 °C -9.8 °C 34442.4 hPa NE 2.6 km/h 15.6 km/h 71 % 0 mm
02:17 -6.9 °C -9.8 °C 34442.4 hPa Calm   15.6 km/h 72 % 0 mm
02:22 -6.9 °C -9.7 °C 34442.4 hPa Calm   15.6 km/h 73 % 0 mm
02:32 -7 °C -9.8 °C 34442.4 hPa Calm   7.7 km/h 73 % 0 mm
02:42 -7.1 °C -9.7 °C 34442.4 hPa NE 2.6 km/h 7.7 km/h 74 % 0 mm
02:52 -7.2 °C -9.7 °C 34428.8 hPa NE 2.6 km/h 7.7 km/h 75 % 0 mm
03:02 -7.2 °C -9.6 °C 34428.8 hPa Calm   10.3 km/h 76 % 0 mm
03:12 -7.3 °C -9.6 °C 34442.4 hPa ENE 5.1 km/h 10.3 km/h 77 % 0 mm
03:17 -7.3 °C -9.6 °C 34442.4 hPa ENE 2.6 km/h 10.3 km/h 77 % 0 mm
03:22 -7.4 °C -9.6 °C 34442.4 hPa Calm   10.3 km/h 78 % 0 mm
03:32 -7.5 °C -9.6 °C 34442.4 hPa Calm   7.7 km/h 79 % 0 mm
03:42 -7.6 °C -9.5 °C 34442.4 hPa Calm   7.7 km/h 80 % 0 mm
03:52 -7.6 °C -9.5 °C 34442.4 hPa ENE 5.1 km/h 5.1 km/h 80 % 0 mm
04:02 -7.6 °C -9.4 °C 34442.4 hPa ENE 2.6 km/h 5.1 km/h 81 % 0 mm
04:12 -7.6 °C -9.4 °C 34442.4 hPa Calm   5.1 km/h 81 % 0 mm
04:17 -7.6 °C -9.3 °C 34442.4 hPa Calm   10.3 km/h 82 % 0 mm
04:22 -7.5 °C -9.2 °C 34442.4 hPa Calm   10.3 km/h 82 % 0 mm
04:32 -7.4 °C -9.2 °C 34452.6 hPa Calm   10.3 km/h 82 % 0 mm
04:37 -7.4 °C -9.2 °C 34452.6 hPa Calm   7.7 km/h 82 % 0 mm
04:47 -7.4 °C -9.2 °C 34452.6 hPa Calm   10.3 km/h 82 % 0 mm
04:52 -7.4 °C -9.2 °C 34452.6 hPa Calm   10.3 km/h 82 % 0 mm
05:02 -7.5 °C -9.2 °C 34452.6 hPa Calm   10.3 km/h 82 % 0 mm
05:12 -7.6 °C -9.3 °C 34452.6 hPa Calm   5.1 km/h 82 % 0 mm
05:22 -7.6 °C -9.3 °C 34452.6 hPa Calm   5.1 km/h 82 % 0 mm
05:27 -7.6 °C -9.3 °C 34442.4 hPa ENE 2.6 km/h 10.3 km/h 82 % 0 mm
05:32 -7.6 °C -9.3 °C 34442.4 hPa NNE 7.7 km/h 10.3 km/h 82 % 0 mm
05:42 -7.6 °C -9.2 °C 34442.4 hPa Calm   7.7 km/h 83 % 0 mm
05:47 -7.6 °C -9.2 °C 34442.4 hPa East 7.7 km/h 10.3 km/h 83 % 0 mm
05:52 -7.7 °C -9.3 °C 34442.4 hPa NE 2.6 km/h 10.3 km/h 83 % 0 mm
06:02 -7.7 °C -9.3 °C 34442.4 hPa Calm   7.7 km/h 83 % 0 mm
06:12 -7.7 °C -9.3 °C 34442.4 hPa Calm   7.7 km/h 83 % 0 mm
06:18 -7.7 °C -9.3 °C 34442.4 hPa ENE 2.6 km/h 12.9 km/h 83 % 0 mm
06:27 -7.7 °C -9.3 °C 34442.4 hPa East 2.6 km/h 12.9 km/h 83 % 0 mm
06:32 -7.8 °C -9.4 °C 34442.4 hPa Calm   12.9 km/h 83 % 0 mm
06:42 -7.8 °C -9.3 °C 34442.4 hPa ENE 2.6 km/h 7.7 km/h 84 % 0 mm
06:52 -7.8 °C -9.3 °C 34442.4 hPa NNE 5.1 km/h 7.7 km/h 84 % 0 mm
06:57 -7.9 °C -9.4 °C 34452.6 hPa East 2.6 km/h 7.7 km/h 84 % 0 mm
07:12 -7.9 °C -9.4 °C 34452.6 hPa Calm   7.7 km/h 84 % 0 mm
07:17 -8 °C -9.5 °C 34452.6 hPa Calm   5.1 km/h 84 % 0 mm
07:22 -8 °C -9.5 °C 34452.6 hPa Calm   5.1 km/h 84 % 0 mm
07:27 -8.1 °C -9.5 °C 34452.6 hPa Calm   2.6 km/h 85 % 0 mm
07:32 -8.1 °C -9.5 °C 34452.6 hPa Calm   2.6 km/h 85 % 0 mm
07:42 -8.1 °C -9.5 °C 34462.7 hPa Calm     85 % 0 mm
07:47 -8.1 °C -9.4 °C 34462.7 hPa Calm     86 % 0 mm
07:52 -8 °C -9.4 °C 34462.7 hPa Calm     85 % 0 mm
08:02 -7.8 °C -9.3 °C 34462.7 hPa Calm   2.6 km/h 84 % 0 mm
08:12 -7.6 °C -9.3 °C 34476.3 hPa Calm   2.6 km/h 82 % 0 mm
08:22 -7.6 °C -9.4 °C 34476.3 hPa Calm   5.1 km/h 81 % 0 mm
08:32 -7.4 °C -9.2 °C 34476.3 hPa Calm   10.3 km/h 81 % 0 mm
08:37 -7.3 °C -9.2 °C 34486.4 hPa NE 2.6 km/h 7.7 km/h 80 % 0 mm
08:42 -7.2 °C -9.2 °C 34486.4 hPa NE 5.1 km/h 7.7 km/h 79 % 0 mm
08:52 -7.2 °C -9.3 °C 34486.4 hPa Calm   10.3 km/h 78 % 0 mm
08:57 -7.3 °C -9.3 °C 34486.4 hPa ENE 2.6 km/h 10.3 km/h 79 % 0 mm
09:02 -7.3 °C -9.3 °C 34486.4 hPa East 2.6 km/h 10.3 km/h 79 % 0 mm
09:07 -7.2 °C -9.3 °C 34496.6 hPa Calm   7.7 km/h 79 % 0 mm
09:12 -7.2 °C -9.2 °C 34496.6 hPa East 5.1 km/h 10.3 km/h 79 % 0 mm
09:17 -7.1 °C -9.3 °C 34496.6 hPa ESE 2.6 km/h 10.3 km/h 78 % 0 mm
09:22 -7.1 °C -9.2 °C 34496.6 hPa ESE 2.6 km/h 10.3 km/h 78 % 0 mm
09:27 -7 °C -9.2 °C 34496.6 hPa ENE 5.1 km/h 12.9 km/h 78 % 0 mm
09:32 -6.9 °C -9.1 °C 34496.6 hPa Calm   12.9 km/h 78 % 0 mm
09:37 -6.8 °C -9.2 °C 34496.6 hPa Calm   12.9 km/h 76 % 0 mm
09:42 -6.6 °C -9.2 °C 34496.6 hPa ENE 5.1 km/h 10.3 km/h 75 % 0 mm
09:47 -6.6 °C -9.1 °C 34496.6 hPa Calm   12.9 km/h 75 % 0 mm
09:52 -6.3 °C -8.9 °C 34496.6 hPa ENE 2.6 km/h 12.9 km/h 74 % 0 mm
09:57 -6.1 °C -8.9 °C 34496.6 hPa ENE 2.6 km/h 12.9 km/h 72 % 0 mm
10:02 -5.8 °C -8.9 °C 34496.6 hPa Calm   12.9 km/h 71 % 0 mm
10:07 -5.7 °C -8.7 °C 34496.6 hPa ENE 5.1 km/h 10.3 km/h 71 % 0 mm
10:12 -5.5 °C -8.6 °C 34496.6 hPa ENE 5.1 km/h 7.7 km/h 71 % 0 mm
10:17 -5.4 °C -8.8 °C 34496.6 hPa Calm   12.9 km/h 68 % 0 mm
10:22 -5.1 °C -8.4 °C 34496.6 hPa East 2.6 km/h 12.9 km/h 69 % 0 mm
10:27 -4.9 °C -8.6 °C 34496.6 hPa ENE 2.6 km/h 12.9 km/h 66 % 0 mm
10:32 -4.7 °C -8.4 °C 34496.6 hPa Calm   12.9 km/h 66 % 0 mm
10:37 -4.4 °C -8.2 °C 34496.6 hPa ENE 2.6 km/h 10.3 km/h 66 % 0 mm
10:42 -4.3 °C -8.5 °C 34496.6 hPa ESE 2.6 km/h 10.3 km/h 63 % 0 mm
10:47 -4.2 °C -8.4 °C 34510.1 hPa ENE 10.3 km/h 10.3 km/h 63 % 0 mm
10:52 -4.4 °C -8.6 °C 34510.1 hPa Calm   12.9 km/h 63 % 0 mm
10:57 -4.3 °C -8.6 °C 34510.1 hPa ENE 7.7 km/h 12.9 km/h 62 % 0 mm
11:02 -4.2 °C -8.8 °C 34510.1 hPa Calm   12.9 km/h 60 % 0 mm
11:07 -4.3 °C -8.7 °C 34510.1 hPa Calm   12.9 km/h 61 % 0 mm
11:12 -4.2 °C -8.9 °C 34510.1 hPa North 7.7 km/h 12.9 km/h 59 % 0 mm
11:17 -4.5 °C -8.9 °C 34510.1 hPa SE 2.6 km/h 12.9 km/h 61 % 0 mm
11:22 -4.7 °C -8.9 °C 34510.1 hPa Calm   12.9 km/h 62 % 0 mm
11:32 -4.1 °C -8.8 °C 34510.1 hPa SE 2.6 km/h 12.9 km/h 59 % 0 mm
11:37 -4 °C -8.9 °C 34510.1 hPa ENE 2.6 km/h 10.3 km/h 58 % 0 mm
11:42 -4.1 °C -9.6 °C 34520.3 hPa ENE 10.3 km/h 12.9 km/h 54 % 0 mm
11:47 -4.4 °C -9.7 °C 34520.3 hPa NNE 2.6 km/h 15.6 km/h 55 % 0 mm
11:52 -4.6 °C -9.6 °C 34520.3 hPa ENE 2.6 km/h 15.6 km/h 57 % 0 mm
11:57 -4.5 °C -10 °C 34520.3 hPa Calm   15.6 km/h 54 % 0 mm
12:02 -3.9 °C -9.6 °C 34520.3 hPa Calm   15.6 km/h 53 % 0 mm
12:07 -3.6 °C -9.1 °C 34520.3 hPa ESE 5.1 km/h 12.9 km/h 54 % 0 mm
12:12 -3.4 °C -9.5 °C 34520.3 hPa ENE 5.1 km/h 12.9 km/h 51 % 0 mm
12:17 -3.4 °C -9.3 °C 34520.3 hPa ENE 12.9 km/h 12.9 km/h 52 % 0 mm
12:22 -3.4 °C -9.6 °C 34510.1 hPa NNE 5.1 km/h 18.2 km/h 50 % 0 mm
12:27 -3.3 °C -9.4 °C 34510.1 hPa NE 10.3 km/h 18.2 km/h 51 % 0 mm
12:32 -3.2 °C -9.3 °C 34510.1 hPa ENE 2.6 km/h 20.8 km/h 51 % 0 mm
12:37 -3.2 °C -9.1 °C 34510.1 hPa ENE 7.7 km/h 18.2 km/h 52 % 0 mm
12:42 -2.9 °C -9.3 °C 34510.1 hPa Calm   18.2 km/h 49 % 0 mm
12:47 -2.7 °C -9.6 °C 34510.1 hPa SSE 2.6 km/h 18.2 km/h 47 % 0 mm
12:52 -2.8 °C -9.8 °C 34510.1 hPa NNE 10.3 km/h 15.6 km/h 46 % 0 mm
12:57 -3.1 °C -9.7 °C 34510.1 hPa ENE 5.1 km/h 28.5 km/h 48 % 0 mm
13:02 -2.9 °C -9.7 °C 34510.1 hPa ENE 5.1 km/h 28.5 km/h 47 % 0 mm
13:12 -2.7 °C -9.3 °C 34510.1 hPa ESE 5.1 km/h 20.8 km/h 48 % 0 mm
13:17 -2.8 °C -9.8 °C 34510.1 hPa East 5.1 km/h 20.8 km/h 46 % 0 mm
13:22 -2.9 °C -9.7 °C 34510.1 hPa ENE 5.1 km/h 20.8 km/h 47 % 0 mm
13:32 -2.6 °C -9.6 °C 34510.1 hPa East 12.9 km/h 20.8 km/h 46 % 0 mm
13:37 -2.7 °C -9.9 °C 34510.1 hPa Calm   20.8 km/h 45 % 0 mm
13:42 -2.7 °C -9.3 °C 34510.1 hPa ENE 5.1 km/h 20.8 km/h 48 % 0 mm
13:47 -2.7 °C -9.9 °C 34510.1 hPa East 15.6 km/h 20.8 km/h 45 % 0 mm
13:52 -2.7 °C -9.2 °C 34510.1 hPa East 2.6 km/h 20.8 km/h 49 % 0 mm
13:57 -2.4 °C -9.5 °C 34510.1 hPa ENE 2.6 km/h 20.8 km/h 46 % 0 mm
14:02 -2.4 °C -9.7 °C 34510.1 hPa NE 2.6 km/h 20.8 km/h 45 % 0 mm
14:12 -2.3 °C -9.6 °C 34510.1 hPa ENE 2.6 km/h 12.9 km/h 45 % 0 mm
14:17 -2.1 °C -9.4 °C 34510.1 hPa ENE 5.1 km/h 12.9 km/h 45 % 0 mm
14:22 -2.1 °C -9.6 °C 34510.1 hPa Calm   20.8 km/h 44 % 0 mm
14:27 -2.3 °C -9.6 °C 34510.1 hPa NE 12.9 km/h 23.3 km/h 45 % 0 mm
14:32 -2.3 °C -9.5 °C 34510.1 hPa East 2.6 km/h 23.3 km/h 45 % 0 mm
14:37 -2.2 °C -9.7 °C 34510.1 hPa ENE 2.6 km/h 23.3 km/h 44 % 0 mm
14:42 -2.3 °C -9.3 °C 34510.1 hPa South 5.1 km/h 18.2 km/h 46 % 0 mm
14:47 -2.2 °C -9.4 °C 34520.3 hPa ENE 2.6 km/h 18.2 km/h 45 % 0 mm
14:52 -2.3 °C -9.6 °C 34510.1 hPa South 5.1 km/h 18.2 km/h 45 % 0 mm
14:57 -2 °C -9.4 °C 34510.1 hPa East 2.6 km/h 15.6 km/h 44 % 0 mm
15:02 -1.9 °C -9.6 °C 34510.1 hPa Calm   15.6 km/h 43 % 0 mm
15:07 -2.2 °C -10 °C 34510.1 hPa ESE 2.6 km/h 15.6 km/h 42 % 0 mm
15:12 -2.5 °C -9.7 °C 34510.1 hPa SSW 2.6 km/h 25.9 km/h 45 % 0 mm
15:17 -2.3 °C -9.5 °C 34510.1 hPa ESE 2.6 km/h 25.9 km/h 45 % 0 mm
15:22 -2.3 °C -9.7 °C 34510.1 hPa NE 7.7 km/h 23.3 km/h 44 % 0 mm
15:27 -2.4 °C -9.8 °C 34510.1 hPa Calm   20.8 km/h 44 % 0 mm
15:32 -2.1 °C -9.6 °C 34510.1 hPa East 2.6 km/h 20.8 km/h 44 % 0 mm
15:37 -2.1 °C -9.5 °C 34510.1 hPa Calm   20.8 km/h 44 % 0 mm
15:47 -2.2 °C -9.6 °C 34510.1 hPa NE 5.1 km/h 23.3 km/h 44 % 0 mm
15:52 -2.6 °C -9.8 °C 34510.1 hPa SE 2.6 km/h 23.3 km/h 45 % 0 mm
15:57 -2.9 °C -10.1 °C 34510.1 hPa ENE 5.1 km/h 23.3 km/h 45 % 0 mm
16:02 -2.9 °C -9.9 °C 34496.6 hPa ESE 2.6 km/h 23.3 km/h 46 % 0 mm
16:07 -2.4 °C -9.5 °C 34510.1 hPa East 5.1 km/h 18.2 km/h 46 % 0 mm
16:12 -2.4 °C -9.9 °C 34510.1 hPa ESE 2.6 km/h 12.9 km/h 44 % 0 mm
16:17 -2.8 °C -9.4 °C 34510.1 hPa NNE 10.3 km/h 25.9 km/h 48 % 0 mm
16:22 -2.4 °C -9.5 °C 34510.1 hPa ESE 5.1 km/h 28.5 km/h 46 % 0 mm
16:27 -2.1 °C -9.8 °C 34496.6 hPa ENE 2.6 km/h 28.5 km/h 43 % 0 mm
16:32 -2 °C -9.9 °C 34496.6 hPa ENE 2.6 km/h 28.5 km/h 42 % 0 mm
16:37 -1.9 °C -9.2 °C 34496.6 hPa ENE 2.6 km/h 18.2 km/h 45 % 0 mm
16:42 -2.1 °C -9.7 °C 34496.6 hPa NE 5.1 km/h 15.6 km/h 43 % 0 mm
16:47 -1.8 °C -9.9 °C 34496.6 hPa NE 5.1 km/h 15.6 km/h 41 % 0 mm
16:52 -1.9 °C -9.8 °C 34496.6 hPa ENE 5.1 km/h 18.2 km/h 42 % 0 mm
16:57 -2.2 °C -10.1 °C 34496.6 hPa ESE 2.6 km/h 18.2 km/h 42 % 0 mm
17:02 -2.6 °C -10 °C 34496.6 hPa East 5.1 km/h 18.2 km/h 44 % 0 mm
17:12 -2.2 °C -10 °C 34496.6 hPa NNW 7.7 km/h 18.2 km/h 42 % 0 mm
17:17 -2.6 °C -10.2 °C 34496.6 hPa ENE 7.7 km/h 18.2 km/h 43 % 0 mm
17:22 -2.8 °C -10 °C 34496.6 hPa East 5.1 km/h 20.8 km/h 45 % 0 mm
17:32 -2.4 °C -9.8 °C 34496.6 hPa SE 10.3 km/h 20.8 km/h 44 % 0 mm
17:37 -2.5 °C -10.1 °C 34496.6 hPa ENE 5.1 km/h 20.8 km/h 43 % 0 mm
17:42 -2.4 °C -9.8 °C 34496.6 hPa SW 5.1 km/h 18.2 km/h 44 % 0 mm
17:47 -2.7 °C -10.3 °C 34496.6 hPa ENE 5.1 km/h 20.8 km/h 43 % 0 mm
17:52 -2.9 °C -10.1 °C 34496.6 hPa NE 7.7 km/h 20.8 km/h 45 % 0 mm
17:57 -3.2 °C -10.1 °C 34486.4 hPa Calm   20.8 km/h 46 % 0 mm
18:02 -2.8 °C -10 °C 34486.4 hPa East 2.6 km/h 20.8 km/h 45 % 0 mm
18:07 -2.4 °C -9.9 °C 34486.4 hPa East 5.1 km/h 10.3 km/h 44 % 0 mm
18:12 -2.7 °C -10.1 °C 34486.4 hPa ESE 5.1 km/h 20.8 km/h 44 % 0 mm
18:17 -3.2 °C -10.1 °C 34486.4 hPa ENE 2.6 km/h 20.8 km/h 46 % 0 mm
18:22 -3.4 °C -10 °C 34486.4 hPa ENE 2.6 km/h 20.8 km/h 48 % 0 mm
18:27 -3.5 °C -10.1 °C 34486.4 hPa Calm   20.8 km/h 48 % 0 mm
18:32 -3.4 °C -10.2 °C 34486.4 hPa NE 5.1 km/h 18.2 km/h 47 % 0 mm
18:37 -3.1 °C -10.1 °C 34486.4 hPa ENE 10.3 km/h 18.2 km/h 46 % 0 mm
18:42 -3.1 °C -10.4 °C 34486.4 hPa NE 2.6 km/h 15.6 km/h 44 % 0 mm
18:47 -3.3 °C -10.4 °C 34486.4 hPa Calm   15.6 km/h 45 % 0 mm
18:52 -3.5 °C -10.3 °C 34486.4 hPa Calm   15.6 km/h 47 % 0 mm
18:57 -3.5 °C -10.3 °C 34496.6 hPa NE 5.1 km/h 15.6 km/h 47 % 0 mm
19:07 -3.7 °C -10.4 °C 34486.4 hPa Calm   15.6 km/h 47 % 0 mm
19:12 -3.8 °C -10.5 °C 34486.4 hPa ENE 2.6 km/h 12.9 km/h 47 % 0 mm
19:22 -3.7 °C -10.4 °C 34496.6 hPa ENE 7.7 km/h 10.3 km/h 47 % 0 mm
19:27 -3.8 °C -10.3 °C 34496.6 hPa Calm   15.6 km/h 48 % 0 mm
19:32 -3.8 °C -10.4 °C 34486.4 hPa Calm   15.6 km/h 48 % 0 mm
19:37 -3.8 °C -10.2 °C 34486.4 hPa Calm   15.6 km/h 49 % 0 mm
19:42 -3.8 °C -10.5 °C 34486.4 hPa ESE 5.1 km/h 7.7 km/h 47 % 0 mm
19:47 -3.7 °C -10.4 °C 34486.4 hPa Calm   15.6 km/h 47 % 0 mm
19:52 -3.8 °C -10.5 °C 34486.4 hPa NE 10.3 km/h 15.6 km/h 47 % 0 mm
20:02 -3.8 °C -10.6 °C 34496.6 hPa Calm   15.6 km/h 47 % 0 mm
20:07 -3.9 °C -10.3 °C 34496.6 hPa Calm   15.6 km/h 49 % 0 mm
20:12 -4 °C -10.6 °C 34496.6 hPa ENE 2.6 km/h 15.6 km/h 48 % 0 mm
20:17 -4 °C -10.3 °C 34496.6 hPa Calm   12.9 km/h 49 % 0 mm
20:22 -4.1 °C -10.1 °C 34496.6 hPa Calm   12.9 km/h 51 % 0 mm
20:32 -4.2 °C -10.2 °C 34496.6 hPa Calm   10.3 km/h 51 % 0 mm
20:37 -4.3 °C -10.1 °C 34496.6 hPa Calm   7.7 km/h 52 % 0 mm
20:47 -4.4 °C -10.1 °C 34496.6 hPa Calm   7.7 km/h 53 % 0 mm
20:52 -4.5 °C -10 °C 34496.6 hPa Calm   7.7 km/h 54 % 0 mm
20:57 -4.6 °C -10.1 °C 34496.6 hPa Calm     54 % 0 mm
21:02 -4.7 °C -10 °C 34510.1 hPa Calm     55 % 0 mm
21:07 -4.8 °C -10.1 °C 34510.1 hPa Calm     55 % 0 mm
21:12 -4.9 °C -9.9 °C 34510.1 hPa Calm     57 % 0 mm
21:17 -5.1 °C -9.9 °C 34510.1 hPa Calm     58 % 0 mm
21:22 -5.3 °C -9.8 °C 34510.1 hPa Calm     60 % 0 mm
21:32 -5.7 °C -9.9 °C 34510.1 hPa Calm     62 % 0 mm
21:42 -6 °C -9.9 °C 34520.3 hPa Calm     64 % 0 mm
21:47 -6.1 °C -9.9 °C 34520.3 hPa Calm     65 % 0 mm
21:52 -6.2 °C -10 °C 34520.3 hPa Calm     65 % 0 mm
21:57 -6.2 °C -10 °C 34520.3 hPa Calm     65 % 0 mm
22:02 -6.2 °C -10 °C 34520.3 hPa Calm     65 % 0 mm
22:12 -6.3 °C -9.9 °C 34533.8 hPa Calm     66 % 0 mm
22:17 -6.4 °C -9.9 °C 34533.8 hPa Calm     67 % 0 mm
22:22 -6.6 °C -10 °C 34533.8 hPa Calm     68 % 0 mm
22:27 -6.7 °C -10 °C 34533.8 hPa Calm     69 % 0 mm
22:32 -6.8 °C -9.9 °C 34533.8 hPa Calm     70 % 0 mm
22:37 -6.9 °C -9.9 °C 34533.8 hPa Calm     71 % 0 mm
22:42 -6.9 °C -9.7 °C 34533.8 hPa Calm     73 % 0 mm
22:52 -7.1 °C -9.9 °C 34533.8 hPa Calm     72 % 0 mm
22:57 -7.2 °C -9.9 °C 34544 hPa Calm     73 % 0 mm
23:02 -7.2 °C -9.8 °C 34544 hPa Calm     74 % 0 mm
23:12 -7.2 °C -9.9 °C 34544 hPa Calm     73 % 0 mm
23:17 -7.2 °C -9.9 °C 34544 hPa Calm     73 % 0 mm
23:22 -7.2 °C -9.9 °C 34544 hPa Calm     73 % 0 mm
23:32 -7.4 °C -10.1 °C 34544 hPa Calm     74 % 0 mm
23:37 -7.5 °C -10 °C 34533.8 hPa Calm     75 % 0 mm
23:42 -7.6 °C -10.1 °C 34533.8 hPa Calm     75 % 0 mm
23:47 -7.6 °C -10 °C 34544 hPa Calm     76 % 0 mm
23:52 -7.6 °C -10 °C 34533.8 hPa Calm     76 % 0 mm
23:57 -7.6 °C -10 °C 34533.8 hPa Calm     76 % 0 mm
Meteo18
Compliments of Weather Underground - 4 mb

Script developed by  Jim McMurry - jmcmurry@mwt.net Adapted for the template by  Wim van der Kuil - Leuven-Template.eu

You find our weather info also at:

European Weather Network

Weather Underground

Equipment we use:

Weather-station
Davis Vue

Weather-program
Meteobridge

Weather-server
Raspberry PI 2 B+

Provider
1 and 1

Davis Vue

Meteobridge

Raspberry PI 2 B+

1 and 1